East Orleans, MA (02643)

10:53 PM EDT on August 31, 2015 (GMT -0400)
Town Cove | | Change Station
CLOSE
Current Station
Personal Weather Station
Location: Orleans, MA
Elevation: 16 ft
Nearby Weather Stations

Elev 16 ft 41.79 °N, 69.98 °W | Updated 3 minutes ago

Clear
Clear
78.0 °F
Feels Like 80 °F
N
5.0
Wind Variable Wind from NW
Gusts 10.0 mph

Today
High -- | Low -- °F
--% Chance of Precip.
Yesterday
High -- | Low -- °F
Precip. -- in
6:04 AM 7:15 PM
Waning Gibbous, 92% visible
Pressure 29.93 in
Visibility 10.0 miles
Clouds Clear
Heat Index 80 °F
Dew Point 69 °F
Humidity 74%
Rainfall in
Snow Depth Not available.
UV 0 out of 12
Pollen 10.80 out of 12
Air Quality Not available.
Flu Activity Not available.
METAR KCQX 010152Z AUTO 25004KT 10SM CLR 23/20 A2993 RMK AO2 SLP135 T02330200
Pressure 29.93 in
Visibility 10.0 miles
Clouds Clear
Heat Index 80 °F
Dew Point 69 °F
Humidity 74%
Rainfall in
Snow Depth Not available.
UV 0 out of 12
Pollen 10.80 out of 12
Air Quality Not available.
Flu Activity Not available.
METAR KCQX 010152Z AUTO 25004KT 10SM CLR 23/20 A2993 RMK AO2 SLP135 T02330200

10-Day Weather Forecast

×

Almanac

Astronomy

Aug. 31, 2015 Rise Set
Actual Time
Civil Twilight
Nautical Twilight
Astronomical Twilight
Moon
Length of Visible Light
Length of Day
Tomorrow will be .
, % of the Moon is Illuminated

Today's Extremes

State Highs State Lows

Community

WunderPhotos

Upload Photos

1,851,459 photos uploaded!

WunderBlogs® & News

Nearby

Air Quality

  Air Quality AQ Index Pollutant
Not available.

Snow Depth

Station Depth Elevation

Earthquake Activity

City Distance Mag. Time & Date
Minimum magnitude displayed is 2.5.

Coastal Water Temperatures

Place Temperature

Stations

Nearby Weather Stations

Station Location Temp. Windchill Dew Point Humidity Wind Precip. Elev Updated Type